Time;durP1;ratioP1;P1;durP2;ratioP2;P2;SDS_P1;SDS_P2;PMS_P1;PMS_P2;Temp;Humidity;BMP_temperature;BMP_pressure;BME280_temperature;BME280_humidity;BME280_pressure;Samples;Min_cycle;Max_cycle;Signal;HPM_P1;HPM_P2
2023/05/05 00:01:25;;;;;;;11.33;4.60;;;13.00;99.90;;;;;;5098799;28;20456;-69
2023/05/05 00:03:52;;;;;;;6.40;3.83;;;13.10;99.90;;;;;;5102045;28;20484;-69
2023/05/05 00:06:20;;;;;;;5.60;3.67;;;13.10;99.90;;;;;;5102265;28;20463;-69
2023/05/05 00:08:47;;;;;;;8.23;4.03;;;13.10;99.90;;;;;;5102293;28;20536;-69
2023/05/05 00:11:14;;;;;;;4.57;3.43;;;13.00;99.90;;;;;;5101910;28;20452;-69
2023/05/05 00:13:41;;;;;;;8.47;3.67;;;13.00;99.90;;;;;;5100692;28;20450;-69
2023/05/05 00:16:08;;;;;;;5.90;3.90;;;13.00;99.90;;;;;;5101101;28;20463;-69
2023/05/05 00:18:35;;;;;;;6.87;3.43;;;13.00;99.90;;;;;;5100302;28;20907;-67
2023/05/05 00:21:03;;;;;;;6.93;3.80;;;12.90;99.90;;;;;;5101096;28;20460;-69
2023/05/05 00:23:31;;;;;;;7.57;3.80;;;12.90;99.90;;;;;;5100379;28;20473;-69
2023/05/05 00:25:58;;;;;;;7.57;3.83;;;12.90;99.90;;;;;;5100648;28;20797;-69
2023/05/05 00:28:25;;;;;;;12.50;4.17;;;12.90;99.90;;;;;;5100425;28;20816;-69
2023/05/05 00:30:52;;;;;;;6.80;4.70;;;12.90;99.90;;;;;;5100060;28;20870;-69
2023/05/05 00:33:18;;;;;;;7.93;4.40;;;12.90;99.90;;;;;;5099995;28;20455;-69
2023/05/05 00:35:45;;;;;;;5.33;3.80;;;12.90;99.90;;;;;;5100733;28;20552;-69
2023/05/05 00:38:12;;;;;;;6.53;4.00;;;13.00;99.90;;;;;;5100192;28;20477;-69
2023/05/05 00:40:41;;;;;;;7.57;4.03;;;13.00;99.90;;;;;;5100093;28;20464;-69
2023/05/05 00:43:08;;;;;;;5.00;4.20;;;13.10;99.90;;;;;;5099900;28;20985;-69
2023/05/05 00:45:36;;;;;;;8.80;4.70;;;13.10;99.90;;;;;;5100448;28;20465;-69
2023/05/05 00:48:03;;;;;;;5.30;3.63;;;13.10;99.90;;;;;;5099540;28;20493;-70
2023/05/05 00:50:31;;;;;;;6.17;4.20;;;13.10;99.90;;;;;;5100204;28;20548;-69
2023/05/05 00:53:05;;;;;;;6.97;3.93;;;13.00;99.90;;;;;;5100395;28;20536;-68
2023/05/05 00:55:32;;;;;;;7.47;4.27;;;13.00;99.90;;;;;;5101670;28;20445;-68
2023/05/05 00:58:02;;;;;;;6.73;4.40;;;13.00;99.90;;;;;;5101106;28;20459;-69
2023/05/05 01:00:31;;;;;;;5.80;4.17;;;13.00;99.90;;;;;;5101856;28;20461;-68
2023/05/05 01:02:58;;;;;;;5.17;4.00;;;13.00;99.90;;;;;;5101899;28;20559;-68
2023/05/05 01:05:30;;;;;;;8.87;4.23;;;13.00;99.90;;;;;;5100512;28;20544;-69
2023/05/05 01:08:11;;;;;;;7.47;4.13;;;13.00;99.90;;;;;;5100837;28;20744;-68
2023/05/05 01:10:44;;;;;;;6.47;4.60;;;13.00;99.90;;;;;;5100440;28;20443;-69
2023/05/05 01:13:25;;;;;;;7.23;4.10;;;12.90;99.90;;;;;;5100179;28;20444;-68
2023/05/05 01:15:56;;;;;;;5.70;3.30;;;12.80;99.90;;;;;;5100589;28;20452;-68
2023/05/05 01:18:31;;;;;;;9.70;5.00;;;12.80;99.90;;;;;;5100395;28;20451;-68
2023/05/05 01:21:04;;;;;;;7.70;3.97;;;12.80;99.90;;;;;;5100397;28;20452;-68
2023/05/05 01:24:02;;;;;;;6.63;3.70;;;12.80;99.90;;;;;;5100078;28;20515;-68
2023/05/05 01:26:46;;;;;;;8.17;4.20;;;12.80;99.90;;;;;;5100454;28;20451;-69
2023/05/05 01:29:34;;;;;;;10.70;3.67;;;12.70;99.90;;;;;;5100192;28;20506;-69
2023/05/05 01:32:07;;;;;;;9.03;5.30;;;12.70;99.90;;;;;;5099290;28;20452;-68
2023/05/05 01:34:39;;;;;;;6.33;4.07;;;12.60;99.90;;;;;;5099640;28;20541;-68
2023/05/05 01:37:11;;;;;;;5.77;3.80;;;12.50;99.90;;;;;;5100010;28;20548;-68
2023/05/05 01:39:40;;;;;;;7.77;4.67;;;12.50;99.90;;;;;;5099482;28;20964;-68
2023/05/05 01:42:12;;;;;;;5.93;4.07;;;12.50;99.90;;;;;;5098690;28;20540;-68
2023/05/05 01:44:42;;;;;;;5.70;3.67;;;12.50;99.90;;;;;;5099009;28;20472;-68
2023/05/05 01:47:11;;;;;;;5.00;3.77;;;12.40;99.90;;;;;;5099618;28;20449;-68
2023/05/05 01:49:39;;;;;;;4.00;3.20;;;12.40;99.90;;;;;;5099306;28;20514;-68
2023/05/05 01:52:08;;;;;;;7.87;3.30;;;12.40;99.90;;;;;;5099801;28;20850;-69
2023/05/05 01:54:37;;;;;;;8.20;3.70;;;12.30;99.90;;;;;;5099390;28;20539;-68
2023/05/05 01:57:06;;;;;;;5.43;2.73;;;12.30;99.90;;;;;;5099011;28;20539;-68
2023/05/05 01:59:34;;;;;;;5.17;3.50;;;12.30;99.90;;;;;;5099649;28;20449;-68
2023/05/05 02:02:02;;;;;;;7.67;3.17;;;12.30;99.90;;;;;;5098953;28;20457;-68
2023/05/05 02:04:33;;;;;;;4.07;3.60;;;12.20;99.90;;;;;;5098610;28;20473;-68
2023/05/05 02:07:01;;;;;;;10.20;3.70;;;12.20;99.90;;;;;;5098492;28;20480;-69
2023/05/05 02:09:29;;;;;;;5.60;2.67;;;12.20;99.90;;;;;;5097102;28;20952;-69
2023/05/05 02:11:58;;;;;;;5.63;3.60;;;12.10;99.90;;;;;;5097689;28;20822;-69
2023/05/05 02:14:28;;;;;;;7.10;3.50;;;12.10;99.90;;;;;;5097609;28;20540;-69
2023/05/05 02:16:57;;;;;;;6.27;3.73;;;12.00;99.90;;;;;;5097840;28;20461;-69
2023/05/05 02:19:32;;;;;;;6.63;3.70;;;12.00;99.90;;;;;;5097861;28;20470;-68
2023/05/05 02:21:59;;;;;;;8.17;3.60;;;12.00;99.90;;;;;;5097453;28;20522;-68
2023/05/05 02:24:26;;;;;;;7.30;3.70;;;12.00;99.90;;;;;;5097815;28;20786;-68
2023/05/05 02:26:54;;;;;;;6.67;4.17;;;12.00;99.90;;;;;;5098054;28;20540;-68
2023/05/05 02:29:28;;;;;;;5.77;4.67;;;12.00;99.90;;;;;;5097988;28;20756;-69
2023/05/05 02:32:02;;;;;;;7.00;3.90;;;12.00;99.90;;;;;;5098085;28;20448;-68
2023/05/05 02:34:35;;;;;;;5.20;4.10;;;11.90;99.90;;;;;;5098317;28;20433;-68
2023/05/05 02:37:05;;;;;;;6.03;4.03;;;11.90;99.90;;;;;;5098273;28;20449;-68
2023/05/05 02:39:38;;;;;;;5.53;3.93;;;11.90;99.90;;;;;;5097570;28;20477;-67
2023/05/05 02:42:07;;;;;;;6.90;3.67;;;11.90;99.90;;;;;;5098131;28;20505;-69
2023/05/05 02:44:36;;;;;;;6.67;3.93;;;11.90;99.90;;;;;;5098258;28;20576;-69
2023/05/05 02:47:03;;;;;;;10.50;4.93;;;11.90;99.90;;;;;;5097888;28;20453;-69
2023/05/05 02:49:31;;;;;;;5.80;4.47;;;11.80;99.90;;;;;;5097717;28;20453;-68
2023/05/05 02:51:59;;;;;;;5.50;3.70;;;11.90;99.90;;;;;;5097367;28;20938;-68
2023/05/05 02:54:27;;;;;;;5.07;4.03;;;11.90;99.90;;;;;;5097954;28;20540;-68
2023/05/05 02:56:57;;;;;;;6.40;4.10;;;11.80;99.90;;;;;;5097681;28;20540;-67
2023/05/05 02:59:31;;;;;;;6.10;4.17;;;11.90;99.90;;;;;;5098364;28;20453;-70
2023/05/05 03:02:09;;;;;;;8.30;4.60;;;11.80;99.90;;;;;;5098050;28;20480;-68
2023/05/05 03:04:43;;;;;;;5.27;3.90;;;11.80;99.90;;;;;;5097598;28;20553;-67
2023/05/05 03:07:14;;;;;;;9.30;4.30;;;11.80;99.90;;;;;;5097713;28;20980;-67
2023/05/05 03:09:46;;;;;;;5.87;3.70;;;11.70;99.90;;;;;;5097120;28;20449;-68
2023/05/05 03:12:20;;;;;;;5.10;3.90;;;11.70;99.90;;;;;;5097312;28;20827;-68
2023/05/05 03:14:48;;;;;;;5.10;4.00;;;11.80;99.90;;;;;;5096962;28;20836;-68
2023/05/05 03:17:17;;;;;;;5.10;3.50;;;11.80;99.90;;;;;;5097264;28;20532;-68
2023/05/05 03:19:46;;;;;;;13.73;3.60;;;11.70;99.90;;;;;;5097499;28;20977;-68
2023/05/05 03:22:13;;;;;;;4.47;3.57;;;11.70;99.90;;;;;;5097551;28;20492;-69
2023/05/05 03:24:40;;;;;;;6.53;3.73;;;11.80;99.90;;;;;;5097564;28;20564;-69
2023/05/05 03:27:07;;;;;;;6.87;3.90;;;11.70;99.90;;;;;;5096737;28;20517;-68
2023/05/05 03:29:34;;;;;;;5.27;3.90;;;11.70;99.90;;;;;;5097381;28;20454;-68
2023/05/05 03:32:01;;;;;;;7.43;4.03;;;11.70;99.90;;;;;;5096938;28;20764;-68
2023/05/05 03:34:28;;;;;;;8.20;3.63;;;11.70;99.90;;;;;;5097069;28;20894;-68
2023/05/05 03:36:56;;;;;;;8.60;3.40;;;11.70;99.90;;;;;;5099104;28;20457;-68
2023/05/05 03:39:23;;;;;;;7.40;3.70;;;11.60;99.90;;;;;;5101118;28;20967;-67
2023/05/05 03:41:50;;;;;;;15.80;4.10;;;11.70;99.90;;;;;;5101358;28;20453;-68
2023/05/05 03:44:16;;;;;;;6.30;4.03;;;11.70;99.90;;;;;;5101184;28;20483;-67
2023/05/05 03:46:43;;;;;;;6.70;4.20;;;11.70;99.90;;;;;;5101193;28;20463;-70
2023/05/05 03:49:10;;;;;;;6.03;3.43;;;11.70;99.90;;;;;;5100687;28;20453;-68
2023/05/05 03:51:37;;;;;;;11.03;3.53;;;11.70;99.90;;;;;;5100713;28;20961;-68
2023/05/05 03:54:05;;;;;;;6.40;4.17;;;11.60;99.90;;;;;;5100347;28;20940;-67
2023/05/05 03:56:32;;;;;;;7.90;4.57;;;11.60;99.90;;;;;;5100066;28;20545;-68
2023/05/05 03:58:59;;;;;;;6.97;4.53;;;11.60;99.90;;;;;;5100769;28;20862;-67
2023/05/05 04:01:28;;;;;;;6.27;3.60;;;11.60;99.90;;;;;;5100224;28;20464;-67
2023/05/05 04:03:55;;;;;;;5.77;3.67;;;11.60;99.90;;;;;;5100373;28;20472;-67
2023/05/05 04:06:22;;;;;;;7.70;5.20;;;11.60;99.90;;;;;;5100382;28;20453;-68
2023/05/05 04:08:49;;;;;;;7.77;4.97;;;11.60;99.90;;;;;;5100246;28;20514;-68
2023/05/05 04:11:17;;;;;;;8.27;3.70;;;11.60;99.90;;;;;;5100210;28;20456;-69
2023/05/05 04:13:44;;;;;;;9.00;4.20;;;11.60;99.90;;;;;;5100350;28;20543;-68
2023/05/05 04:16:11;;;;;;;10.13;4.20;;;11.60;99.90;;;;;;5100168;28;20480;-69
2023/05/05 04:18:38;;;;;;;5.70;4.10;;;11.60;99.90;;;;;;5100170;28;20477;-69
2023/05/05 04:21:05;;;;;;;6.10;4.20;;;11.50;99.90;;;;;;5100135;28;20551;-69
2023/05/05 04:23:32;;;;;;;14.53;5.03;;;11.60;99.90;;;;;;5100121;28;20449;-69
2023/05/05 04:25:58;;;;;;;4.20;3.63;;;11.60;99.90;;;;;;5099389;28;20534;-67
2023/05/05 04:28:27;;;;;;;8.30;3.90;;;11.50;99.90;;;;;;5099799;28;20545;-68
2023/05/05 04:30:53;;;;;;;9.90;3.80;;;11.50;99.90;;;;;;5100267;28;20475;-69
2023/05/05 04:33:20;;;;;;;8.30;4.20;;;11.60;99.90;;;;;;5099828;28;20453;-68
2023/05/05 04:35:47;;;;;;;4.80;4.23;;;11.50;99.90;;;;;;5099910;28;20514;-69
2023/05/05 04:38:14;;;;;;;5.80;4.23;;;11.50;99.90;;;;;;5100242;28;20688;-69
2023/05/05 04:40:41;;;;;;;5.23;3.87;;;11.50;99.90;;;;;;5099464;28;20560;-69
2023/05/05 04:43:08;;;;;;;6.20;4.30;;;11.60;99.90;;;;;;5099762;28;20488;-69
2023/05/05 04:45:36;;;;;;;5.80;3.73;;;11.60;99.90;;;;;;5099794;28;20806;-68
2023/05/05 04:48:04;;;;;;;8.60;4.53;;;11.60;99.90;;;;;;5098672;28;20464;-68
2023/05/05 04:50:31;;;;;;;8.23;4.03;;;11.70;99.90;;;;;;5099439;28;20536;-69
2023/05/05 04:52:58;;;;;;;9.50;4.43;;;11.60;99.90;;;;;;5099847;28;20536;-68
2023/05/05 04:55:25;;;;;;;6.40;4.13;;;11.60;99.90;;;;;;5099997;28;20553;-68
2023/05/05 04:57:51;;;;;;;5.67;4.30;;;11.70;99.90;;;;;;5100173;28;20536;-69
2023/05/05 05:00:18;;;;;;;6.27;4.13;;;11.70;99.90;;;;;;5099729;28;20499;-68
2023/05/05 05:02:47;;;;;;;10.77;5.23;;;11.70;99.90;;;;;;5100172;28;20461;-69
2023/05/05 05:05:14;;;;;;;14.90;7.77;;;11.80;99.90;;;;;;5100741;28;20473;-69
2023/05/05 05:07:41;;;;;;;15.20;4.90;;;11.80;99.90;;;;;;5100015;28;20493;-68
2023/05/05 05:10:08;;;;;;;9.23;4.90;;;11.90;99.90;;;;;;5100185;28;20453;-68
2023/05/05 05:12:36;;;;;;;5.63;4.37;;;11.80;99.90;;;;;;5099963;28;20540;-68
2023/05/05 05:15:03;;;;;;;4.83;4.03;;;11.80;99.90;;;;;;5099887;28;20532;-68
2023/05/05 05:17:30;;;;;;;4.73;3.70;;;11.80;99.90;;;;;;5099633;28;20548;-68
2023/05/05 05:20:00;;;;;;;5.07;3.57;;;11.90;99.90;;;;;;5100856;28;20449;-69
2023/05/05 05:22:27;;;;;;;10.07;4.00;;;12.00;99.90;;;;;;5098149;28;20450;-68
2023/05/05 05:24:54;;;;;;;6.17;4.63;;;12.00;99.90;;;;;;5099026;28;20477;-69
2023/05/05 05:27:20;;;;;;;9.00;4.77;;;12.00;99.90;;;;;;5099302;28;20453;-68
2023/05/05 05:29:47;;;;;;;10.10;4.80;;;12.00;99.90;;;;;;5099516;28;20485;-69
2023/05/05 05:32:14;;;;;;;48.80;34.30;;;12.00;99.90;;;;;;5099597;28;20787;-68
2023/05/05 05:34:41;;;;;;;10.40;6.53;;;12.00;99.90;;;;;;5099156;28;20445;-68
2023/05/05 05:37:09;;;;;;;5.10;3.70;;;12.00;99.90;;;;;;5099926;28;20489;-68
2023/05/05 05:39:36;;;;;;;8.00;4.50;;;12.10;99.90;;;;;;5099490;28;20580;-68
2023/05/05 05:42:03;;;;;;;9.77;4.87;;;12.10;99.90;;;;;;5099610;28;20780;-68
2023/05/05 05:44:31;;;;;;;12.20;5.00;;;12.10;99.90;;;;;;5099542;28;20560;-69
2023/05/05 05:46:58;;;;;;;7.50;4.43;;;12.20;99.90;;;;;;5099563;28;20461;-69
2023/05/05 05:49:25;;;;;;;8.90;4.73;;;12.20;99.90;;;;;;5099758;28;20500;-69
2023/05/05 05:51:52;;;;;;;7.27;4.90;;;12.30;99.90;;;;;;5098485;28;20496;-68
2023/05/05 05:54:20;;;;;;;9.53;5.17;;;12.30;99.90;;;;;;5099148;28;20464;-68
2023/05/05 05:56:47;;;;;;;7.67;4.60;;;12.30;99.90;;;;;;5099646;28;20536;-69
2023/05/05 05:59:13;;;;;;;9.83;4.00;;;12.40;99.90;;;;;;5099124;28;20468;-69
2023/05/05 06:01:40;;;;;;;12.27;4.77;;;12.40;99.90;;;;;;5098899;28;20515;-69
2023/05/05 06:04:07;;;;;;;10.77;4.20;;;12.40;99.90;;;;;;5098858;28;20489;-67
2023/05/05 06:06:34;;;;;;;6.40;3.93;;;12.50;99.90;;;;;;5096171;28;20458;-67
2023/05/05 06:09:01;;;;;;;9.30;4.90;;;12.60;99.90;;;;;;5096008;28;20854;-67
2023/05/05 06:11:29;;;;;;;11.70;4.57;;;12.60;99.90;;;;;;5095976;28;20560;-67
2023/05/05 06:13:56;;;;;;;10.23;4.17;;;12.70;99.90;;;;;;5095732;28;20457;-67
2023/05/05 06:16:23;;;;;;;9.47;4.70;;;12.70;99.90;;;;;;5095566;28;20493;-67
2023/05/05 06:18:50;;;;;;;7.27;4.23;;;12.80;99.90;;;;;;5095608;28;20453;-67
2023/05/05 06:21:19;;;;;;;6.30;5.20;;;12.90;99.90;;;;;;5095383;28;20471;-66
2023/05/05 06:23:46;;;;;;;7.70;5.00;;;12.90;99.90;;;;;;5095299;28;20504;-65
2023/05/05 06:26:13;;;;;;;11.47;5.00;;;13.00;99.90;;;;;;5095300;28;20661;-67
2023/05/05 06:28:41;;;;;;;5.83;4.87;;;13.00;99.90;;;;;;5095060;28;20552;-66
2023/05/05 06:31:08;;;;;;;9.33;5.17;;;13.10;99.90;;;;;;5095341;28;20464;-67
2023/05/05 06:33:35;;;;;;;8.90;5.07;;;13.20;99.90;;;;;;5095184;28;20548;-66
2023/05/05 06:36:02;;;;;;;11.67;5.50;;;13.20;99.90;;;;;;5094801;28;20513;-66
2023/05/05 06:38:29;;;;;;;8.90;5.00;;;13.20;99.90;;;;;;5094575;28;20485;-66
2023/05/05 06:40:57;;;;;;;7.63;4.47;;;13.30;99.90;;;;;;5094865;28;20498;-67
2023/05/05 06:43:24;;;;;;;8.90;4.50;;;13.30;99.90;;;;;;5095075;28;20453;-66
2023/05/05 06:45:52;;;;;;;8.33;4.57;;;13.40;99.90;;;;;;5094495;28;20497;-67
2023/05/05 06:48:19;;;;;;;8.13;4.60;;;13.40;99.90;;;;;;5094842;28;20859;-67
2023/05/05 06:50:46;;;;;;;7.83;4.27;;;13.50;99.90;;;;;;5094390;28;20453;-67
2023/05/05 06:53:13;;;;;;;7.80;5.90;;;13.60;99.90;;;;;;5094383;28;20542;-67
2023/05/05 06:55:45;;;;;;;6.37;4.63;;;13.60;99.90;;;;;;5094722;28;20453;-67
2023/05/05 06:58:12;;;;;;;14.37;5.97;;;13.60;99.90;;;;;;5094624;28;20843;-66
2023/05/05 07:00:40;;;;;;;7.80;5.37;;;13.70;99.90;;;;;;5094730;28;20759;-66
2023/05/05 07:03:08;;;;;;;8.70;4.97;;;13.80;99.90;;;;;;5094942;28;20449;-66
2023/05/05 07:05:35;;;;;;;7.23;4.20;;;13.90;99.90;;;;;;5094651;28;20477;-66
2023/05/05 07:08:02;;;;;;;7.93;4.20;;;14.00;99.90;;;;;;5093951;28;20898;-66
2023/05/05 07:10:30;;;;;;;16.13;5.40;;;14.10;99.90;;;;;;5094769;28;20453;-67
2023/05/05 07:12:57;;;;;;;9.60;4.67;;;14.20;99.90;;;;;;5094171;28;20929;-67
2023/05/05 07:15:24;;;;;;;7.87;4.90;;;14.20;99.90;;;;;;5094360;28;20544;-67
2023/05/05 07:17:51;;;;;;;6.03;4.30;;;14.30;99.90;;;;;;5094463;28;20514;-67
2023/05/05 07:20:19;;;;;;;8.87;4.20;;;14.40;99.90;;;;;;5094257;28;20548;-67
2023/05/05 07:22:46;;;;;;;7.93;5.20;;;14.30;99.90;;;;;;5094404;28;20458;-66
2023/05/05 07:25:13;;;;;;;11.33;5.97;;;14.30;99.90;;;;;;5094826;28;20477;-66
2023/05/05 07:27:40;;;;;;;7.00;4.30;;;14.40;99.90;;;;;;5094378;28;21008;-66
2023/05/05 07:30:08;;;;;;;8.83;4.00;;;14.50;99.90;;;;;;5094212;28;20556;-66
2023/05/05 07:32:35;;;;;;;15.03;4.70;;;14.50;99.90;;;;;;5094142;28;20465;-66
2023/05/05 07:35:02;;;;;;;9.00;4.53;;;14.60;99.90;;;;;;5094135;28;20541;-67
2023/05/05 07:37:30;;;;;;;9.60;5.90;;;14.60;99.90;;;;;;5094268;28;20484;-66
2023/05/05 07:39:57;;;;;;;8.73;5.03;;;14.60;99.90;;;;;;5094059;28;20695;-65
2023/05/05 07:42:24;;;;;;;10.30;5.20;;;14.60;99.90;;;;;;5093953;28;20552;-65
2023/05/05 07:44:51;;;;;;;5.70;4.23;;;14.70;99.90;;;;;;5093732;28;20544;-65
2023/05/05 07:47:18;;;;;;;6.10;4.20;;;14.70;99.90;;;;;;5094222;28;20913;-67
2023/05/05 07:49:45;;;;;;;9.27;5.60;;;14.70;99.90;;;;;;5093992;28;20544;-66
2023/05/05 07:52:12;;;;;;;7.07;5.07;;;14.70;99.90;;;;;;5094088;28;20544;-67
2023/05/05 07:54:41;;;;;;;8.10;4.93;;;14.80;99.90;;;;;;5094189;28;20827;-66
2023/05/05 07:57:08;;;;;;;6.20;4.80;;;14.80;99.90;;;;;;5094470;28;20453;-66
2023/05/05 07:59:34;;;;;;;11.20;4.90;;;14.80;99.90;;;;;;5094181;28;20496;-67
2023/05/05 08:02:01;;;;;;;7.93;4.93;;;14.80;99.90;;;;;;5094149;28;20453;-67
2023/05/05 08:04:28;;;;;;;8.90;5.33;;;14.90;99.90;;;;;;5094131;28;20540;-66
2023/05/05 08:06:55;;;;;;;6.50;4.10;;;14.90;99.90;;;;;;5093766;28;20481;-67
2023/05/05 08:09:22;;;;;;;5.20;4.30;;;14.90;99.90;;;;;;5093920;28;20529;-67
2023/05/05 08:11:50;;;;;;;6.93;4.63;;;15.00;99.90;;;;;;5094122;28;20457;-67
2023/05/05 08:14:17;;;;;;;15.57;5.30;;;15.00;99.90;;;;;;5093784;28;20536;-66
2023/05/05 08:16:44;;;;;;;13.20;4.87;;;15.10;99.90;;;;;;5093909;28;20781;-66
2023/05/05 08:19:10;;;;;;;7.50;5.10;;;15.10;99.90;;;;;;5093571;28;20454;-65
2023/05/05 08:21:37;;;;;;;9.57;6.00;;;15.20;99.90;;;;;;5094173;28;20663;-66
2023/05/05 08:24:04;;;;;;;9.13;4.80;;;15.30;99.90;;;;;;5097605;28;20457;-66
2023/05/05 08:26:31;;;;;;;9.40;5.30;;;15.40;99.90;;;;;;5097687;28;20477;-66
2023/05/05 08:29:00;;;;;;;11.43;5.67;;;15.50;99.90;;;;;;5097256;28;20918;-66
2023/05/05 08:31:27;;;;;;;7.43;4.53;;;15.60;99.90;;;;;;5097519;28;20457;-66
2023/05/05 08:33:54;;;;;;;6.97;4.77;;;15.60;99.90;;;;;;5097543;28;20535;-66
2023/05/05 08:36:21;;;;;;;8.33;4.60;;;15.70;99.90;;;;;;5097434;28;20464;-66
2023/05/05 08:38:48;;;;;;;6.43;4.73;;;15.70;99.90;;;;;;5097054;28;20984;-66
2023/05/05 08:41:18;;;;;;;6.07;4.30;;;15.70;99.90;;;;;;5097466;28;20463;-65
2023/05/05 08:43:47;;;;;;;7.10;4.57;;;15.90;99.90;;;;;;5097295;28;20461;-66
2023/05/05 08:46:15;;;;;;;7.90;4.63;;;16.00;99.90;;;;;;5097147;28;20481;-66
2023/05/05 08:48:43;;;;;;;9.73;5.60;;;16.10;99.90;;;;;;5097149;28;20849;-66
2023/05/05 08:51:16;;;;;;;6.03;5.43;;;16.10;99.90;;;;;;5097137;28;20536;-67
2023/05/05 08:53:51;;;;;;;6.43;4.87;;;16.20;99.90;;;;;;5096677;28;20974;-67
2023/05/05 08:56:20;;;;;;;8.53;4.80;;;16.30;99.90;;;;;;5096972;28;20465;-67
2023/05/05 08:58:48;;;;;;;9.47;5.50;;;16.50;99.90;;;;;;5096937;28;20531;-66
2023/05/05 09:01:17;;;;;;;8.83;5.03;;;16.60;99.90;;;;;;5096894;28;20458;-66
2023/05/05 09:03:44;;;;;;;8.10;4.83;;;16.70;99.90;;;;;;5096754;28;20454;-66
2023/05/05 09:06:12;;;;;;;8.93;4.87;;;16.80;99.90;;;;;;5096965;28;20478;-68
2023/05/05 09:08:39;;;;;;;6.40;4.33;;;16.80;99.90;;;;;;5096520;28;20548;-67
2023/05/05 09:11:06;;;;;;;11.23;5.77;;;16.90;99.90;;;;;;5096994;28;20500;-68
2023/05/05 09:13:33;;;;;;;11.03;4.90;;;17.00;99.90;;;;;;5097061;28;20930;-67
2023/05/05 09:16:00;;;;;;;6.90;4.03;;;17.20;99.90;;;;;;5096608;28;20532;-67
2023/05/05 09:18:29;;;;;;;8.07;4.80;;;17.30;99.90;;;;;;5096795;28;20453;-67
2023/05/05 09:20:56;;;;;;;8.00;5.20;;;17.40;99.20;;;;;;5096632;28;20469;-67
2023/05/05 09:23:23;;;;;;;7.23;4.63;;;17.50;98.80;;;;;;5096481;28;20550;-67
2023/05/05 09:26:04;;;;;;;6.90;4.50;;;17.60;97.70;;;;;;5096469;28;20507;-66
2023/05/05 09:28:31;;;;;;;6.77;4.00;;;17.70;97.60;;;;;;5096556;28;20442;-65
2023/05/05 09:31:12;;;;;;;6.93;4.50;;;17.70;96.70;;;;;;5095981;28;20453;-67
2023/05/05 09:33:41;;;;;;;11.80;8.93;;;17.80;96.30;;;;;;5095391;28;20437;-65
2023/05/05 09:36:08;;;;;;;11.83;5.03;;;17.90;95.90;;;;;;5096115;28;20457;-66
2023/05/05 09:38:35;;;;;;;6.30;4.20;;;17.90;95.40;;;;;;5095969;28;20481;-66
2023/05/05 09:41:04;;;;;;;7.80;3.80;;;17.90;95.30;;;;;;5096016;28;20453;-67
2023/05/05 09:43:48;;;;;;;9.00;4.53;;;18.00;94.90;;;;;;5096575;28;20465;-66
2023/05/05 09:46:15;;;;;;;7.67;4.53;;;18.10;94.30;;;;;;5096354;28;20465;-66
2023/05/05 09:48:43;;;;;;;8.30;4.90;;;18.10;94.00;;;;;;5096373;28;20453;-67
2023/05/05 09:51:11;;;;;;;5.27;4.23;;;18.20;94.40;;;;;;5096479;28;20449;-67
2023/05/05 09:53:40;;;;;;;8.03;4.10;;;18.40;93.70;;;;;;5096921;28;20529;-67
2023/05/05 09:56:09;;;;;;;5.80;3.60;;;18.60;93.50;;;;;;5096209;28;20460;-67
2023/05/05 09:58:36;;;;;;;7.23;4.63;;;18.80;91.90;;;;;;5096002;28;20461;-67
2023/05/05 10:01:02;;;;;;;7.43;4.80;;;19.00;91.00;;;;;;5095617;28;20464;-67
2023/05/05 10:03:29;;;;;;;5.57;4.10;;;19.10;89.40;;;;;;5095879;28;20544;-66
2023/05/05 10:05:59;;;;;;;6.17;4.30;;;19.20;85.60;;;;;;5095990;28;20481;-66
2023/05/05 10:08:28;;;;;;;5.60;4.00;;;19.30;82.20;;;;;;5096207;28;20453;-66
2023/05/05 10:10:58;;;;;;;7.20;3.93;;;19.40;82.80;;;;;;5095721;28;20453;-67
2023/05/05 10:13:25;;;;;;;9.93;4.03;;;19.60;81.60;;;;;;5095075;28;20442;-67
2023/05/05 10:15:53;;;;;;;6.17;4.70;;;19.80;80.00;;;;;;5095295;28;20543;-67
2023/05/05 10:18:21;;;;;;;7.13;4.37;;;20.00;76.50;;;;;;5095495;28;20461;-66
2023/05/05 10:20:52;;;;;;;5.73;4.27;;;20.10;74.00;;;;;;5095051;28;20461;-66
2023/05/05 10:23:23;;;;;;;8.83;4.10;;;20.30;73.70;;;;;;5094889;28;20442;-67
2023/05/05 10:25:54;;;;;;;8.77;4.10;;;20.40;71.10;;;;;;5094808;28;20481;-66
2023/05/05 10:28:31;;;;;;;11.07;4.00;;;20.50;69.10;;;;;;5095100;28;20967;-66
2023/05/05 10:31:01;;;;;;;6.93;3.90;;;20.40;69.10;;;;;;5095323;28;20441;-67
2023/05/05 10:33:37;;;;;;;12.60;4.20;;;20.40;68.70;;;;;;5094853;28;20433;-67
2023/05/05 10:36:06;;;;;;;4.40;3.77;;;20.40;69.50;;;;;;5094954;28;20447;-66
2023/05/05 10:38:35;;;;;;;9.20;3.90;;;20.30;69.80;;;;;;5094819;28;20477;-67
2023/05/05 10:41:03;;;;;;;6.83;3.80;;;20.40;70.70;;;;;;5094875;28;20536;-66
2023/05/05 10:43:31;;;;;;;5.00;4.10;;;20.40;68.40;;;;;;5094778;28;20549;-66
2023/05/05 10:45:59;;;;;;;5.17;3.73;;;20.40;68.40;;;;;;5093990;28;20568;-66
2023/05/05 10:48:34;;;;;;;7.10;3.63;;;20.40;65.70;;;;;;5095281;28;20457;-66
2023/05/05 10:51:13;;;;;;;6.43;3.87;;;20.40;67.00;;;;;;5095122;28;20505;-66
2023/05/05 10:53:56;;;;;;;5.43;3.20;;;20.40;68.80;;;;;;5094622;28;20438;-66
2023/05/05 10:56:27;;;;;;;9.00;4.50;;;20.50;67.80;;;;;;5094753;28;20832;-66
2023/05/05 10:58:54;;;;;;;6.80;3.83;;;20.50;67.00;;;;;;5095056;28;20536;-68
2023/05/05 11:01:32;;;;;;;5.80;3.77;;;20.60;66.50;;;;;;5094225;28;20489;-66
2023/05/05 11:04:18;;;;;;;4.00;3.57;;;20.60;65.40;;;;;;5094281;28;20445;-67
2023/05/05 11:07:24;;;;;;;9.40;4.17;;;20.60;63.90;;;;;;5093970;28;20537;-67
2023/05/05 11:09:57;;;;;;;6.60;3.50;;;20.60;62.30;;;;;;5094338;28;20461;-67
2023/05/05 11:12:24;;;;;;;5.83;3.53;;;20.70;60.40;;;;;;5094358;28;20823;-66
2023/05/05 11:15:24;;;;;;;4.97;3.00;;;20.90;62.60;;;;;;5094407;28;20496;-66
2023/05/05 11:17:52;;;;;;;5.87;3.47;;;21.50;61.90;;;;;;5081881;28;20544;-66
2023/05/05 11:20:43;;;;;;;5.10;3.60;;;22.60;59.80;;;;;;5094491;28;20465;-67
2023/05/05 11:23:22;;;;;;;6.07;3.80;;;23.90;56.20;;;;;;5094625;28;20487;-67
2023/05/05 11:25:51;;;;;;;4.70;3.30;;;25.30;50.80;;;;;;5094473;28;20468;-67
2023/05/05 11:28:22;;;;;;;6.00;3.77;;;26.40;47.40;;;;;;5093885;28;20467;-67
2023/05/05 11:31:18;;;;;;;4.90;3.10;;;27.30;42.70;;;;;;5093972;28;20446;-67
2023/05/05 11:33:46;;;;;;;6.40;3.60;;;28.30;40.20;;;;;;5094375;28;20786;-67
2023/05/05 11:36:14;;;;;;;3.33;3.03;;;29.30;36.50;;;;;;5094101;28;20445;-67
2023/05/05 11:39:03;;;;;;;4.97;3.17;;;30.00;33.60;;;;;;5094332;28;21042;-67
2023/05/05 11:42:00;;;;;;;3.67;3.20;;;30.60;31.50;;;;;;5086358;28;20462;-67
2023/05/05 11:44:31;;;;;;;7.20;3.10;;;31.00;28.80;;;;;;5093948;28;20473;-67
2023/05/05 11:47:30;;;;;;;5.00;3.30;;;31.20;27.30;;;;;;5093972;28;20477;-67
2023/05/05 11:49:57;;;;;;;6.77;3.60;;;31.30;27.10;;;;;;5094195;28;20510;-67
2023/05/05 11:52:28;;;;;;;3.80;2.83;;;31.40;26.20;;;;;;5094301;28;20453;-67
2023/05/05 11:55:02;;;;;;;4.97;3.00;;;31.40;25.50;;;;;;5094272;28;20471;-67
2023/05/05 11:57:30;;;;;;;7.60;3.20;;;31.30;25.70;;;;;;5095319;28;20494;-67
2023/05/05 12:00:00;;;;;;;3.17;2.83;;;31.40;25.30;;;;;;5097960;28;20459;-67
2023/05/05 12:02:28;;;;;;;6.10;3.00;;;31.50;25.00;;;;;;5098270;28;20453;-67
2023/05/05 12:04:55;;;;;;;4.17;3.77;;;31.40;23.90;;;;;;5097855;28;20479;-67
2023/05/05 12:07:26;;;;;;;7.47;3.30;;;31.40;24.00;;;;;;5097873;28;20481;-68
2023/05/05 12:09:53;;;;;;;7.70;3.27;;;31.60;24.70;;;;;;5097614;28;20437;-68
2023/05/05 12:12:21;;;;;;;7.00;3.17;;;31.80;23.70;;;;;;5097712;28;20496;-68
2023/05/05 12:14:51;;;;;;;3.90;3.17;;;32.40;23.70;;;;;;5097294;28;20453;-68
2023/05/05 12:17:19;;;;;;;18.97;15.07;;;32.90;23.00;;;;;;5097444;28;20532;-67
2023/05/05 12:19:48;;;;;;;8.80;4.03;;;33.30;22.50;;;;;;5097559;28;20464;-67
2023/05/05 12:22:19;;;;;;;3.37;3.07;;;33.70;21.90;;;;;;5097059;28;20618;-67
2023/05/05 12:24:53;;;;;;;4.87;3.10;;;34.20;21.30;;;;;;5097390;28;20457;-67
2023/05/05 12:27:20;;;;;;;4.50;3.30;;;34.70;21.10;;;;;;5097222;28;20469;-67
2023/05/05 12:29:48;;;;;;;6.00;2.67;;;35.10;20.10;;;;;;5097596;28;20493;-67
2023/05/05 12:32:20;;;;;;;4.40;2.77;;;35.40;19.60;;;;;;5097249;28;20525;-67
2023/05/05 12:34:47;;;;;;;2.90;2.70;;;35.80;19.30;;;;;;5097128;28;20965;-67
2023/05/05 12:37:15;;;;;;;6.80;2.87;;;36.10;18.50;;;;;;5097086;28;20540;-67
2023/05/05 12:39:42;;;;;;;6.00;3.20;;;36.20;17.60;;;;;;5096993;28;20485;-67
2023/05/05 12:42:08;;;;;;;6.70;2.80;;;36.20;17.70;;;;;;5097432;28;20650;-67
2023/05/05 12:44:36;;;;;;;3.67;3.13;;;36.40;17.60;;;;;;5097336;28;20554;-67
2023/05/05 12:47:04;;;;;;;5.57;2.70;;;36.50;16.60;;;;;;5097213;28;20492;-66
2023/05/05 12:49:32;;;;;;;3.60;2.73;;;36.60;17.20;;;;;;5097264;28;20790;-66
2023/05/05 12:52:00;;;;;;;5.13;2.50;;;36.60;16.40;;;;;;5097156;28;20464;-67
2023/05/05 12:54:28;;;;;;;5.20;2.97;;;36.50;16.50;;;;;;5097028;28;20453;-67
2023/05/05 12:56:57;;;;;;;3.70;2.77;;;36.80;16.50;;;;;;5096712;28;20936;-67